Aérodrome :
LOGIN :

S'inscrire | Disclaimer

   EN    FR    IT 

 










Légende :    VFR   VFR Marginal   IFR   IFR Intensif   IFR Très Intensif
Visi : 
Plafond : 
>= 8 km
>= 3000ft
5 à 8 km
1000 à 3000 ft
1500m à 5 km
500 à 1000 ft
800 à 1500m
200 à 500 ft
< 800m
< 200 ft
Symboles :   Orages  Brouillard  Fortes neiges  Fortes précipitations  Vent > 20 kt
SIGMETs :   Divers  Orages  Givrage  Turbulence  Onde Orograph.  Cendres Volcan.






- Altitude de l'aérodrome : 194 ft


EBCV - Chièvres

DERNIER METAR :
  • 150355Z AUTO 21007KT 9999 BKN031/// OVC098/// 15/13 Q1005 BLU

METARs EXPIRÉS :
  • 150325Z AUTO 20006KT 9999 OVC032/// 15/13 Q1005 BLU
  • 150255Z AUTO 20009KT 9999 FEW018/// OVC035/// 15/13 Q1005 BLU
  • 150225Z AUTO 20008KT 9999 BKN016/// BKN024/// 15/13 Q1006 WHT
  • 150155Z AUTO 19007KT 9999 -RA BKN016/// BKN120/// 15/13 Q1006 WHT

TAF TAF EBCV
Valide du 14 à 19h jusqu'au 15 à 07h UTC


141541Z 1419/1507 18007KT 9999 BKN090
BECMG 1422/1424 22006KT 5000 -RA -SHRA SCT010 BKN030
TEMPO 1502/1507 4000 RA SHRA SCT005 BKN020
PROB30
TEMPO 1421/1507 20012G25KT 3000 TSRA BKN015CB BY EBWM



MET'MAP, la Météo Aéronautique d'un coup d'oeil ! - Copyright ORBIFLY Décembre 2007 - Disclaimer

ORBIFLY MET'MAP TEAM :

Programmation & Développement : Alexandra Zaïnal
Conception & Développement : Baudouin d'Aumeries
Co-Programmation & Développement : Marc-Olivier Méhu
Soutien technique & logistique : Manuel Goepfert

Contact : metmap@orbifly.com




SOURCES & CREDITS :

   NOAA